sensor_id;sensor_type;location;lat;lon;timestamp;P1;durP1;ratioP1;P2;durP2;ratioP2
17650;SDS011;26663;59.302;18.082;2022-10-16T00:02:15;20.23;;;12.80;;
17650;SDS011;26663;59.302;18.082;2022-10-16T00:05:21;19.85;;;12.20;;
17650;SDS011;26663;59.302;18.082;2022-10-16T00:08:26;18.08;;;12.05;;
17650;SDS011;26663;59.302;18.082;2022-10-16T00:11:32;16.42;;;10.60;;
17650;SDS011;26663;59.302;18.082;2022-10-16T00:14:39;14.18;;;10.30;;
17650;SDS011;26663;59.302;18.082;2022-10-16T00:17:46;14.30;;;10.35;;
17650;SDS011;26663;59.302;18.082;2022-10-16T00:20:53;12.57;;;10.30;;
17650;SDS011;26663;59.302;18.082;2022-10-16T00:24:04;15.63;;;10.65;;
17650;SDS011;26663;59.302;18.082;2022-10-16T00:27:11;15.40;;;11.30;;
17650;SDS011;26663;59.302;18.082;2022-10-16T00:30:16;14.27;;;10.95;;
17650;SDS011;26663;59.302;18.082;2022-10-16T00:33:21;14.82;;;11.20;;
17650;SDS011;26663;59.302;18.082;2022-10-16T00:36:28;16.92;;;10.90;;
17650;SDS011;26663;59.302;18.082;2022-10-16T00:39:33;13.32;;;11.23;;
17650;SDS011;26663;59.302;18.082;2022-10-16T00:42:38;14.43;;;11.25;;
17650;SDS011;26663;59.302;18.082;2022-10-16T00:45:43;14.88;;;11.23;;
17650;SDS011;26663;59.302;18.082;2022-10-16T00:48:49;16.98;;;11.93;;
17650;SDS011;26663;59.302;18.082;2022-10-16T00:52:00;19.58;;;11.75;;
17650;SDS011;26663;59.302;18.082;2022-10-16T00:55:05;18.75;;;11.82;;
17650;SDS011;26663;59.302;18.082;2022-10-16T00:58:11;20.25;;;12.85;;
17650;SDS011;26663;59.302;18.082;2022-10-16T01:05:39;17.55;;;11.73;;
17650;SDS011;26663;59.302;18.082;2022-10-16T01:08:57;17.70;;;12.27;;
17650;SDS011;26663;59.302;18.082;2022-10-16T01:12:15;16.35;;;12.02;;
17650;SDS011;26663;59.302;18.082;2022-10-16T01:15:27;15.27;;;11.50;;
17650;SDS011;26663;59.302;18.082;2022-10-16T01:18:37;17.20;;;10.75;;
17650;SDS011;26663;59.302;18.082;2022-10-16T01:21:49;13.63;;;11.18;;
17650;SDS011;26663;59.302;18.082;2022-10-16T01:24:57;14.75;;;11.23;;
17650;SDS011;26663;59.302;18.082;2022-10-16T01:28:05;17.33;;;12.07;;
17650;SDS011;26663;59.302;18.082;2022-10-16T01:31:11;18.50;;;11.85;;
17650;SDS011;26663;59.302;18.082;2022-10-16T01:34:20;15.93;;;11.38;;
17650;SDS011;26663;59.302;18.082;2022-10-16T01:37:32;18.25;;;11.80;;
17650;SDS011;26663;59.302;18.082;2022-10-16T01:40:40;16.77;;;11.07;;
17650;SDS011;26663;59.302;18.082;2022-10-16T01:43:52;15.43;;;10.73;;
17650;SDS011;26663;59.302;18.082;2022-10-16T01:47:02;13.55;;;10.65;;
17650;SDS011;26663;59.302;18.082;2022-10-16T01:50:09;15.63;;;10.90;;
17650;SDS011;26663;59.302;18.082;2022-10-16T01:53:15;17.83;;;11.57;;
17650;SDS011;26663;59.302;18.082;2022-10-16T01:56:20;12.45;;;10.75;;
17650;SDS011;26663;59.302;18.082;2022-10-16T01:59:28;14.20;;;10.15;;
17650;SDS011;26663;59.302;18.082;2022-10-16T02:02:36;16.13;;;10.82;;
17650;SDS011;26663;59.302;18.082;2022-10-16T02:05:42;15.57;;;11.13;;
17650;SDS011;26663;59.302;18.082;2022-10-16T02:08:51;15.25;;;10.77;;
17650;SDS011;26663;59.302;18.082;2022-10-16T02:11:57;13.55;;;10.43;;
17650;SDS011;26663;59.302;18.082;2022-10-16T02:15:07;17.15;;;11.15;;
17650;SDS011;26663;59.302;18.082;2022-10-16T02:18:13;13.32;;;10.75;;
17650;SDS011;26663;59.302;18.082;2022-10-16T02:21:19;19.15;;;10.90;;
17650;SDS011;26663;59.302;18.082;2022-10-16T02:24:30;16.48;;;10.57;;
17650;SDS011;26663;59.302;18.082;2022-10-16T02:27:38;14.18;;;10.57;;
17650;SDS011;26663;59.302;18.082;2022-10-16T02:30:58;14.75;;;10.70;;
17650;SDS011;26663;59.302;18.082;2022-10-16T02:34:06;14.82;;;9.73;;
17650;SDS011;26663;59.302;18.082;2022-10-16T02:37:13;18.15;;;11.05;;
17650;SDS011;26663;59.302;18.082;2022-10-16T02:40:18;11.93;;;9.65;;
17650;SDS011;26663;59.302;18.082;2022-10-16T02:43:27;12.77;;;10.30;;
17650;SDS011;26663;59.302;18.082;2022-10-16T02:46:33;16.00;;;10.02;;
17650;SDS011;26663;59.302;18.082;2022-10-16T02:49:38;11.93;;;10.18;;
17650;SDS011;26663;59.302;18.082;2022-10-16T02:52:43;11.48;;;9.57;;
17650;SDS011;26663;59.302;18.082;2022-10-16T02:55:48;10.55;;;8.93;;
17650;SDS011;26663;59.302;18.082;2022-10-16T02:58:53;10.60;;;9.43;;
17650;SDS011;26663;59.302;18.082;2022-10-16T03:01:59;12.65;;;9.27;;
17650;SDS011;26663;59.302;18.082;2022-10-16T03:05:04;14.63;;;9.20;;
17650;SDS011;26663;59.302;18.082;2022-10-16T03:08:10;9.88;;;8.90;;
17650;SDS011;26663;59.302;18.082;2022-10-16T03:11:16;12.02;;;9.30;;
17650;SDS011;26663;59.302;18.082;2022-10-16T03:14:21;14.68;;;9.02;;
17650;SDS011;26663;59.302;18.082;2022-10-16T03:17:28;12.20;;;9.43;;
17650;SDS011;26663;59.302;18.082;2022-10-16T03:20:33;12.43;;;8.80;;
17650;SDS011;26663;59.302;18.082;2022-10-16T03:23:38;9.55;;;8.75;;
17650;SDS011;26663;59.302;18.082;2022-10-16T03:26:43;11.52;;;8.98;;
17650;SDS011;26663;59.302;18.082;2022-10-16T03:29:47;9.63;;;8.65;;
17650;SDS011;26663;59.302;18.082;2022-10-16T03:32:53;9.55;;;8.57;;
17650;SDS011;26663;59.302;18.082;2022-10-16T03:35:58;12.15;;;9.60;;
17650;SDS011;26663;59.302;18.082;2022-10-16T03:39:03;11.70;;;9.13;;
17650;SDS011;26663;59.302;18.082;2022-10-16T03:42:09;14.68;;;9.05;;
17650;SDS011;26663;59.302;18.082;2022-10-16T03:45:13;9.57;;;8.68;;
17650;SDS011;26663;59.302;18.082;2022-10-16T03:48:20;9.55;;;8.55;;
17650;SDS011;26663;59.302;18.082;2022-10-16T03:51:25;9.90;;;7.97;;
17650;SDS011;26663;59.302;18.082;2022-10-16T03:54:29;9.05;;;8.15;;
17650;SDS011;26663;59.302;18.082;2022-10-16T03:57:34;11.30;;;7.55;;
17650;SDS011;26663;59.302;18.082;2022-10-16T04:00:40;10.35;;;8.10;;
17650;SDS011;26663;59.302;18.082;2022-10-16T04:03:46;8.80;;;8.00;;
17650;SDS011;26663;59.302;18.082;2022-10-16T04:06:51;8.57;;;7.70;;
17650;SDS011;26663;59.302;18.082;2022-10-16T04:09:56;11.48;;;7.32;;
17650;SDS011;26663;59.302;18.082;2022-10-16T04:13:01;7.70;;;7.00;;
17650;SDS011;26663;59.302;18.082;2022-10-16T04:16:08;7.30;;;6.70;;
17650;SDS011;26663;59.302;18.082;2022-10-16T04:19:14;6.55;;;5.95;;
17650;SDS011;26663;59.302;18.082;2022-10-16T04:22:19;7.13;;;6.47;;
17650;SDS011;26663;59.302;18.082;2022-10-16T04:25:24;7.15;;;6.45;;
17650;SDS011;26663;59.302;18.082;2022-10-16T04:28:36;6.78;;;6.22;;
17650;SDS011;26663;59.302;18.082;2022-10-16T04:31:41;7.50;;;6.47;;
17650;SDS011;26663;59.302;18.082;2022-10-16T04:34:47;7.97;;;7.28;;
17650;SDS011;26663;59.302;18.082;2022-10-16T04:37:52;8.10;;;7.10;;
17650;SDS011;26663;59.302;18.082;2022-10-16T04:40:57;8.23;;;6.95;;
17650;SDS011;26663;59.302;18.082;2022-10-16T04:44:02;7.93;;;7.18;;
17650;SDS011;26663;59.302;18.082;2022-10-16T04:47:07;7.07;;;6.40;;
17650;SDS011;26663;59.302;18.082;2022-10-16T04:50:13;7.43;;;6.80;;
17650;SDS011;26663;59.302;18.082;2022-10-16T04:53:36;10.02;;;6.70;;
17650;SDS011;26663;59.302;18.082;2022-10-16T04:56:40;8.57;;;6.45;;
17650;SDS011;26663;59.302;18.082;2022-10-16T04:59:49;6.95;;;6.40;;
17650;SDS011;26663;59.302;18.082;2022-10-16T05:02:54;7.55;;;6.80;;
17650;SDS011;26663;59.302;18.082;2022-10-16T05:06:01;8.75;;;6.47;;
17650;SDS011;26663;59.302;18.082;2022-10-16T05:09:07;7.40;;;6.80;;
17650;SDS011;26663;59.302;18.082;2022-10-16T05:12:12;7.43;;;6.72;;
17650;SDS011;26663;59.302;18.082;2022-10-16T05:15:17;9.95;;;6.90;;
17650;SDS011;26663;59.302;18.082;2022-10-16T05:18:23;7.05;;;6.55;;
17650;SDS011;26663;59.302;18.082;2022-10-16T05:21:29;7.85;;;6.15;;
17650;SDS011;26663;59.302;18.082;2022-10-16T05:24:34;7.72;;;6.75;;
17650;SDS011;26663;59.302;18.082;2022-10-16T05:27:39;7.15;;;6.55;;
17650;SDS011;26663;59.302;18.082;2022-10-16T05:30:44;7.53;;;6.80;;
17650;SDS011;26663;59.302;18.082;2022-10-16T05:33:48;8.23;;;7.07;;
17650;SDS011;26663;59.302;18.082;2022-10-16T05:36:55;7.80;;;7.00;;
17650;SDS011;26663;59.302;18.082;2022-10-16T05:40:00;10.10;;;6.95;;
17650;SDS011;26663;59.302;18.082;2022-10-16T05:43:06;7.68;;;6.75;;
17650;SDS011;26663;59.302;18.082;2022-10-16T05:46:12;8.50;;;6.63;;
17650;SDS011;26663;59.302;18.082;2022-10-16T05:49:17;9.32;;;7.30;;
17650;SDS011;26663;59.302;18.082;2022-10-16T05:52:23;8.50;;;7.30;;
17650;SDS011;26663;59.302;18.082;2022-10-16T05:55:28;11.73;;;7.78;;
17650;SDS011;26663;59.302;18.082;2022-10-16T05:58:33;8.10;;;7.30;;
17650;SDS011;26663;59.302;18.082;2022-10-16T06:01:40;11.48;;;7.78;;
17650;SDS011;26663;59.302;18.082;2022-10-16T06:04:45;8.52;;;7.68;;
17650;SDS011;26663;59.302;18.082;2022-10-16T06:07:51;9.43;;;8.05;;
17650;SDS011;26663;59.302;18.082;2022-10-16T06:11:02;9.77;;;8.20;;
17650;SDS011;26663;59.302;18.082;2022-10-16T06:14:09;11.00;;;8.60;;
17650;SDS011;26663;59.302;18.082;2022-10-16T06:17:14;13.55;;;9.18;;
17650;SDS011;26663;59.302;18.082;2022-10-16T06:20:20;11.77;;;8.98;;
17650;SDS011;26663;59.302;18.082;2022-10-16T06:23:27;11.05;;;9.63;;
17650;SDS011;26663;59.302;18.082;2022-10-16T06:26:32;14.18;;;9.55;;
17650;SDS011;26663;59.302;18.082;2022-10-16T06:29:37;13.25;;;9.95;;
17650;SDS011;26663;59.302;18.082;2022-10-16T06:32:42;12.63;;;9.63;;
17650;SDS011;26663;59.302;18.082;2022-10-16T06:35:47;12.82;;;10.07;;
17650;SDS011;26663;59.302;18.082;2022-10-16T06:38:53;13.63;;;10.02;;
17650;SDS011;26663;59.302;18.082;2022-10-16T06:41:58;15.00;;;10.75;;
17650;SDS011;26663;59.302;18.082;2022-10-16T06:45:10;13.68;;;10.45;;
17650;SDS011;26663;59.302;18.082;2022-10-16T06:48:15;14.13;;;10.60;;
17650;SDS011;26663;59.302;18.082;2022-10-16T06:51:21;11.93;;;10.30;;
17650;SDS011;26663;59.302;18.082;2022-10-16T06:54:28;16.90;;;10.95;;
17650;SDS011;26663;59.302;18.082;2022-10-16T06:57:44;14.15;;;11.30;;
17650;SDS011;26663;59.302;18.082;2022-10-16T07:00:54;15.88;;;11.50;;
17650;SDS011;26663;59.302;18.082;2022-10-16T07:04:00;15.90;;;10.43;;
17650;SDS011;26663;59.302;18.082;2022-10-16T07:07:06;17.05;;;11.50;;
17650;SDS011;26663;59.302;18.082;2022-10-16T07:10:13;13.52;;;11.30;;
17650;SDS011;26663;59.302;18.082;2022-10-16T07:13:18;14.63;;;11.75;;
17650;SDS011;26663;59.302;18.082;2022-10-16T07:16:23;16.17;;;11.90;;
17650;SDS011;26663;59.302;18.082;2022-10-16T07:19:30;15.07;;;11.50;;
17650;SDS011;26663;59.302;18.082;2022-10-16T07:22:36;16.77;;;11.63;;
17650;SDS011;26663;59.302;18.082;2022-10-16T07:25:42;15.05;;;11.43;;
17650;SDS011;26663;59.302;18.082;2022-10-16T07:28:47;19.40;;;11.50;;
17650;SDS011;26663;59.302;18.082;2022-10-16T07:31:53;14.07;;;9.80;;
17650;SDS011;26663;59.302;18.082;2022-10-16T07:34:58;15.52;;;10.55;;
17650;SDS011;26663;59.302;18.082;2022-10-16T07:38:03;13.10;;;9.73;;
17650;SDS011;26663;59.302;18.082;2022-10-16T07:41:10;10.15;;;9.05;;
17650;SDS011;26663;59.302;18.082;2022-10-16T07:44:16;11.30;;;8.65;;
17650;SDS011;26663;59.302;18.082;2022-10-16T07:47:21;11.75;;;8.32;;
17650;SDS011;26663;59.302;18.082;2022-10-16T07:50:27;10.60;;;7.72;;
17650;SDS011;26663;59.302;18.082;2022-10-16T07:53:32;7.72;;;7.13;;
17650;SDS011;26663;59.302;18.082;2022-10-16T07:56:39;8.70;;;6.90;;
17650;SDS011;26663;59.302;18.082;2022-10-16T07:59:45;7.32;;;6.72;;
17650;SDS011;26663;59.302;18.082;2022-10-16T08:02:50;6.97;;;6.38;;
17650;SDS011;26663;59.302;18.082;2022-10-16T08:05:56;6.70;;;6.10;;
17650;SDS011;26663;59.302;18.082;2022-10-16T08:09:01;6.88;;;6.35;;
17650;SDS011;26663;59.302;18.082;2022-10-16T08:12:08;7.38;;;6.05;;
17650;SDS011;26663;59.302;18.082;2022-10-16T08:15:13;6.60;;;5.90;;
17650;SDS011;26663;59.302;18.082;2022-10-16T08:18:18;6.68;;;5.70;;
17650;SDS011;26663;59.302;18.082;2022-10-16T08:21:23;6.32;;;5.78;;
17650;SDS011;26663;59.302;18.082;2022-10-16T08:24:28;5.68;;;5.13;;
17650;SDS011;26663;59.302;18.082;2022-10-16T08:27:36;6.30;;;5.80;;
17650;SDS011;26663;59.302;18.082;2022-10-16T08:30:41;5.43;;;5.07;;
17650;SDS011;26663;59.302;18.082;2022-10-16T08:33:46;5.50;;;5.10;;
17650;SDS011;26663;59.302;18.082;2022-10-16T08:36:52;5.43;;;5.05;;
17650;SDS011;26663;59.302;18.082;2022-10-16T08:39:57;4.95;;;4.45;;
17650;SDS011;26663;59.302;18.082;2022-10-16T08:43:11;5.53;;;5.10;;
17650;SDS011;26663;59.302;18.082;2022-10-16T08:46:36;6.45;;;4.68;;
17650;SDS011;26663;59.302;18.082;2022-10-16T08:49:55;4.85;;;4.53;;
17650;SDS011;26663;59.302;18.082;2022-10-16T08:53:02;8.32;;;4.93;;
17650;SDS011;26663;59.302;18.082;2022-10-16T08:56:09;6.50;;;5.15;;
17650;SDS011;26663;59.302;18.082;2022-10-16T08:59:15;5.30;;;5.00;;
17650;SDS011;26663;59.302;18.082;2022-10-16T09:02:25;5.72;;;5.18;;
17650;SDS011;26663;59.302;18.082;2022-10-16T09:05:49;5.75;;;5.15;;
17650;SDS011;26663;59.302;18.082;2022-10-16T09:09:13;5.50;;;5.03;;
17650;SDS011;26663;59.302;18.082;2022-10-16T09:12:48;6.85;;;4.97;;
17650;SDS011;26663;59.302;18.082;2022-10-16T09:16:01;5.25;;;4.82;;
17650;SDS011;26663;59.302;18.082;2022-10-16T09:19:20;4.78;;;4.47;;
17650;SDS011;26663;59.302;18.082;2022-10-16T09:22:29;4.45;;;4.15;;
17650;SDS011;26663;59.302;18.082;2022-10-16T09:25:35;4.82;;;4.38;;
17650;SDS011;26663;59.302;18.082;2022-10-16T09:28:42;4.03;;;3.70;;
17650;SDS011;26663;59.302;18.082;2022-10-16T09:31:48;8.15;;;4.07;;
17650;SDS011;26663;59.302;18.082;2022-10-16T09:34:54;3.75;;;3.55;;
17650;SDS011;26663;59.302;18.082;2022-10-16T09:38:00;4.20;;;3.72;;
17650;SDS011;26663;59.302;18.082;2022-10-16T09:41:11;3.78;;;3.45;;
17650;SDS011;26663;59.302;18.082;2022-10-16T09:44:23;5.10;;;3.60;;
17650;SDS011;26663;59.302;18.082;2022-10-16T09:47:35;3.72;;;3.53;;
17650;SDS011;26663;59.302;18.082;2022-10-16T09:50:54;4.45;;;3.65;;
17650;SDS011;26663;59.302;18.082;2022-10-16T09:54:01;3.67;;;3.45;;
17650;SDS011;26663;59.302;18.082;2022-10-16T09:57:18;4.32;;;3.70;;
17650;SDS011;26663;59.302;18.082;2022-10-16T10:00:23;5.55;;;3.58;;
17650;SDS011;26663;59.302;18.082;2022-10-16T10:03:37;5.15;;;3.65;;
17650;SDS011;26663;59.302;18.082;2022-10-16T10:06:44;9.10;;;3.65;;
17650;SDS011;26663;59.302;18.082;2022-10-16T10:09:50;4.40;;;3.92;;
17650;SDS011;26663;59.302;18.082;2022-10-16T10:12:55;10.95;;;4.38;;
17650;SDS011;26663;59.302;18.082;2022-10-16T10:16:01;7.18;;;3.60;;
17650;SDS011;26663;59.302;18.082;2022-10-16T10:19:09;6.72;;;3.75;;
17650;SDS011;26663;59.302;18.082;2022-10-16T10:22:26;3.58;;;3.28;;
17650;SDS011;26663;59.302;18.082;2022-10-16T10:25:39;6.95;;;3.47;;
17650;SDS011;26663;59.302;18.082;2022-10-16T10:28:54;3.85;;;3.65;;
17650;SDS011;26663;59.302;18.082;2022-10-16T10:32:06;6.18;;;3.30;;
17650;SDS011;26663;59.302;18.082;2022-10-16T10:35:25;3.50;;;3.20;;
17650;SDS011;26663;59.302;18.082;2022-10-16T10:38:39;7.40;;;3.30;;
17650;SDS011;26663;59.302;18.082;2022-10-16T10:45:24;3.20;;;2.97;;
17650;SDS011;26663;59.302;18.082;2022-10-16T10:48:39;4.35;;;2.83;;
17650;SDS011;26663;59.302;18.082;2022-10-16T10:52:09;3.70;;;3.00;;
17650;SDS011;26663;59.302;18.082;2022-10-16T10:55:33;6.53;;;2.58;;
17650;SDS011;26663;59.302;18.082;2022-10-16T10:58:54;7.07;;;2.67;;
17650;SDS011;26663;59.302;18.082;2022-10-16T11:02:21;3.20;;;2.80;;
17650;SDS011;26663;59.302;18.082;2022-10-16T11:05:34;4.22;;;3.03;;
17650;SDS011;26663;59.302;18.082;2022-10-16T11:08:48;11.43;;;3.10;;
17650;SDS011;26663;59.302;18.082;2022-10-16T11:12:04;2.72;;;2.60;;
17650;SDS011;26663;59.302;18.082;2022-10-16T11:15:12;3.38;;;2.70;;
17650;SDS011;26663;59.302;18.082;2022-10-16T11:18:21;3.08;;;2.72;;
17650;SDS011;26663;59.302;18.082;2022-10-16T11:21:30;8.35;;;2.63;;
17650;SDS011;26663;59.302;18.082;2022-10-16T11:24:42;3.10;;;2.85;;
17650;SDS011;26663;59.302;18.082;2022-10-16T11:27:54;7.03;;;2.95;;
17650;SDS011;26663;59.302;18.082;2022-10-16T11:31:07;6.22;;;2.85;;
17650;SDS011;26663;59.302;18.082;2022-10-16T11:34:17;2.45;;;2.25;;
17650;SDS011;26663;59.302;18.082;2022-10-16T11:37:27;6.93;;;2.60;;
17650;SDS011;26663;59.302;18.082;2022-10-16T11:40:38;2.50;;;2.30;;
17650;SDS011;26663;59.302;18.082;2022-10-16T11:43:48;7.05;;;2.60;;
17650;SDS011;26663;59.302;18.082;2022-10-16T11:47:02;6.35;;;2.83;;
17650;SDS011;26663;59.302;18.082;2022-10-16T11:50:38;4.80;;;2.70;;
17650;SDS011;26663;59.302;18.082;2022-10-16T11:53:50;5.03;;;2.80;;
17650;SDS011;26663;59.302;18.082;2022-10-16T11:57:02;2.88;;;2.63;;
17650;SDS011;26663;59.302;18.082;2022-10-16T12:00:16;5.72;;;2.63;;
17650;SDS011;26663;59.302;18.082;2022-10-16T12:03:26;4.68;;;2.58;;
17650;SDS011;26663;59.302;18.082;2022-10-16T12:06:36;2.47;;;2.28;;
17650;SDS011;26663;59.302;18.082;2022-10-16T12:09:44;5.78;;;3.03;;
17650;SDS011;26663;59.302;18.082;2022-10-16T12:12:51;4.28;;;3.47;;
17650;SDS011;26663;59.302;18.082;2022-10-16T12:16:04;4.25;;;3.42;;
17650;SDS011;26663;59.302;18.082;2022-10-16T12:19:12;7.10;;;3.00;;
17650;SDS011;26663;59.302;18.082;2022-10-16T12:22:18;6.32;;;3.22;;
17650;SDS011;26663;59.302;18.082;2022-10-16T12:25:24;3.55;;;3.30;;
17650;SDS011;26663;59.302;18.082;2022-10-16T12:28:33;5.05;;;3.58;;
17650;SDS011;26663;59.302;18.082;2022-10-16T12:31:44;3.72;;;3.40;;
17650;SDS011;26663;59.302;18.082;2022-10-16T12:34:59;4.20;;;3.13;;
17650;SDS011;26663;59.302;18.082;2022-10-16T12:38:06;3.22;;;2.92;;
17650;SDS011;26663;59.302;18.082;2022-10-16T12:41:24;2.72;;;2.67;;
17650;SDS011;26663;59.302;18.082;2022-10-16T12:44:35;3.08;;;2.88;;
17650;SDS011;26663;59.302;18.082;2022-10-16T12:47:47;2.58;;;2.38;;
17650;SDS011;26663;59.302;18.082;2022-10-16T12:50:54;5.13;;;2.40;;
17650;SDS011;26663;59.302;18.082;2022-10-16T12:53:59;2.42;;;2.30;;
17650;SDS011;26663;59.302;18.082;2022-10-16T12:57:12;2.60;;;2.45;;
17650;SDS011;26663;59.302;18.082;2022-10-16T13:00:34;2.72;;;2.40;;
17650;SDS011;26663;59.302;18.082;2022-10-16T13:07:29;2.45;;;2.28;;
17650;SDS011;26663;59.302;18.082;2022-10-16T13:10:47;3.78;;;3.20;;
17650;SDS011;26663;59.302;18.082;2022-10-16T13:14:15;3.63;;;2.30;;
17650;SDS011;26663;59.302;18.082;2022-10-16T13:17:36;2.35;;;2.15;;
17650;SDS011;26663;59.302;18.082;2022-10-16T13:20:56;2.72;;;2.30;;
17650;SDS011;26663;59.302;18.082;2022-10-16T13:24:14;3.88;;;2.40;;
17650;SDS011;26663;59.302;18.082;2022-10-16T13:27:30;2.08;;;1.98;;
17650;SDS011;26663;59.302;18.082;2022-10-16T13:30:42;3.15;;;2.22;;
17650;SDS011;26663;59.302;18.082;2022-10-16T13:33:49;3.67;;;2.30;;
17650;SDS011;26663;59.302;18.082;2022-10-16T13:36:57;2.97;;;2.75;;
17650;SDS011;26663;59.302;18.082;2022-10-16T13:40:05;3.20;;;2.40;;
17650;SDS011;26663;59.302;18.082;2022-10-16T13:43:22;2.65;;;2.45;;
17650;SDS011;26663;59.302;18.082;2022-10-16T13:46:30;2.15;;;1.90;;
17650;SDS011;26663;59.302;18.082;2022-10-16T13:49:38;2.20;;;2.10;;
17650;SDS011;26663;59.302;18.082;2022-10-16T13:52:43;5.60;;;2.58;;
17650;SDS011;26663;59.302;18.082;2022-10-16T13:55:48;3.60;;;2.35;;
17650;SDS011;26663;59.302;18.082;2022-10-16T13:58:59;3.40;;;2.28;;
17650;SDS011;26663;59.302;18.082;2022-10-16T14:02:05;2.88;;;2.35;;
17650;SDS011;26663;59.302;18.082;2022-10-16T14:05:26;2.22;;;2.03;;
17650;SDS011;26663;59.302;18.082;2022-10-16T14:08:31;2.00;;;1.90;;
17650;SDS011;26663;59.302;18.082;2022-10-16T14:11:37;3.60;;;2.17;;
17650;SDS011;26663;59.302;18.082;2022-10-16T14:14:49;1.80;;;1.80;;
17650;SDS011;26663;59.302;18.082;2022-10-16T14:17:56;4.00;;;2.47;;
17650;SDS011;26663;59.302;18.082;2022-10-16T14:21:04;2.83;;;2.70;;
17650;SDS011;26663;59.302;18.082;2022-10-16T14:24:11;3.90;;;2.33;;
17650;SDS011;26663;59.302;18.082;2022-10-16T14:27:28;4.22;;;1.85;;
17650;SDS011;26663;59.302;18.082;2022-10-16T14:30:35;2.33;;;2.08;;
17650;SDS011;26663;59.302;18.082;2022-10-16T14:33:40;4.65;;;2.28;;
17650;SDS011;26663;59.302;18.082;2022-10-16T14:36:47;4.07;;;2.30;;
17650;SDS011;26663;59.302;18.082;2022-10-16T14:39:52;2.53;;;2.03;;
17650;SDS011;26663;59.302;18.082;2022-10-16T14:42:57;2.60;;;2.40;;
17650;SDS011;26663;59.302;18.082;2022-10-16T14:46:03;5.72;;;2.10;;
17650;SDS011;26663;59.302;18.082;2022-10-16T14:49:15;4.20;;;2.42;;
17650;SDS011;26663;59.302;18.082;2022-10-16T14:52:24;2.47;;;2.22;;
17650;SDS011;26663;59.302;18.082;2022-10-16T14:55:28;2.33;;;2.20;;
17650;SDS011;26663;59.302;18.082;2022-10-16T14:58:34;5.85;;;2.22;;
17650;SDS011;26663;59.302;18.082;2022-10-16T15:01:39;2.75;;;2.10;;
17650;SDS011;26663;59.302;18.082;2022-10-16T15:04:45;5.97;;;2.42;;
17650;SDS011;26663;59.302;18.082;2022-10-16T15:07:51;5.53;;;2.03;;
17650;SDS011;26663;59.302;18.082;2022-10-16T15:10:58;8.15;;;2.80;;
17650;SDS011;26663;59.302;18.082;2022-10-16T15:14:03;6.18;;;2.45;;
17650;SDS011;26663;59.302;18.082;2022-10-16T15:17:09;3.65;;;3.05;;
17650;SDS011;26663;59.302;18.082;2022-10-16T15:20:17;4.80;;;3.08;;
17650;SDS011;26663;59.302;18.082;2022-10-16T15:23:23;6.68;;;2.85;;
17650;SDS011;26663;59.302;18.082;2022-10-16T15:26:33;4.90;;;3.03;;
17650;SDS011;26663;59.302;18.082;2022-10-16T15:29:38;5.15;;;3.08;;
17650;SDS011;26663;59.302;18.082;2022-10-16T15:32:43;3.33;;;1.77;;
17650;SDS011;26663;59.302;18.082;2022-10-16T15:35:48;3.70;;;1.63;;
17650;SDS011;26663;59.302;18.082;2022-10-16T15:38:57;1.33;;;1.30;;
17650;SDS011;26663;59.302;18.082;2022-10-16T15:42:02;4.03;;;1.70;;
17650;SDS011;26663;59.302;18.082;2022-10-16T15:45:09;2.05;;;1.15;;
17650;SDS011;26663;59.302;18.082;2022-10-16T15:48:16;1.40;;;1.08;;
17650;SDS011;26663;59.302;18.082;2022-10-16T15:51:21;2.17;;;1.23;;
17650;SDS011;26663;59.302;18.082;2022-10-16T15:54:27;1.65;;;1.20;;
17650;SDS011;26663;59.302;18.082;2022-10-16T15:57:32;1.70;;;1.60;;
17650;SDS011;26663;59.302;18.082;2022-10-16T16:00:37;3.38;;;1.40;;
17650;SDS011;26663;59.302;18.082;2022-10-16T16:03:42;2.08;;;1.33;;
17650;SDS011;26663;59.302;18.082;2022-10-16T16:06:47;1.60;;;1.40;;
17650;SDS011;26663;59.302;18.082;2022-10-16T16:09:53;1.88;;;1.60;;
17650;SDS011;26663;59.302;18.082;2022-10-16T16:12:58;2.38;;;1.60;;
17650;SDS011;26663;59.302;18.082;2022-10-16T16:16:05;1.90;;;1.80;;
17650;SDS011;26663;59.302;18.082;2022-10-16T16:19:11;2.67;;;1.50;;
17650;SDS011;26663;59.302;18.082;2022-10-16T16:22:17;1.92;;;1.60;;
17650;SDS011;26663;59.302;18.082;2022-10-16T16:25:23;1.65;;;1.55;;
17650;SDS011;26663;59.302;18.082;2022-10-16T16:28:29;2.80;;;1.45;;
17650;SDS011;26663;59.302;18.082;2022-10-16T16:31:34;2.80;;;1.33;;
17650;SDS011;26663;59.302;18.082;2022-10-16T16:34:39;1.40;;;1.30;;
17650;SDS011;26663;59.302;18.082;2022-10-16T16:37:44;1.33;;;1.33;;
17650;SDS011;26663;59.302;18.082;2022-10-16T16:40:52;1.25;;;1.15;;
17650;SDS011;26663;59.302;18.082;2022-10-16T16:44:01;1.40;;;1.27;;
17650;SDS011;26663;59.302;18.082;2022-10-16T16:47:09;2.08;;;1.10;;
17650;SDS011;26663;59.302;18.082;2022-10-16T16:50:14;1.17;;;1.00;;
17650;SDS011;26663;59.302;18.082;2022-10-16T16:53:19;2.95;;;1.05;;
17650;SDS011;26663;59.302;18.082;2022-10-16T16:56:26;1.10;;;1.10;;
17650;SDS011;26663;59.302;18.082;2022-10-16T16:59:31;1.20;;;1.20;;
17650;SDS011;26663;59.302;18.082;2022-10-16T17:02:36;1.88;;;1.10;;
17650;SDS011;26663;59.302;18.082;2022-10-16T17:05:54;0.95;;;0.95;;
17650;SDS011;26663;59.302;18.082;2022-10-16T17:09:00;1.33;;;1.33;;
17650;SDS011;26663;59.302;18.082;2022-10-16T17:12:10;2.47;;;0.93;;
17650;SDS011;26663;59.302;18.082;2022-10-16T17:15:15;1.05;;;0.90;;
17650;SDS011;26663;59.302;18.082;2022-10-16T17:18:20;1.00;;;1.00;;
17650;SDS011;26663;59.302;18.082;2022-10-16T17:21:27;1.20;;;1.10;;
17650;SDS011;26663;59.302;18.082;2022-10-16T17:24:34;0.80;;;0.80;;
17650;SDS011;26663;59.302;18.082;2022-10-16T17:27:41;1.52;;;0.90;;
17650;SDS011;26663;59.302;18.082;2022-10-16T17:30:45;0.90;;;0.90;;
17650;SDS011;26663;59.302;18.082;2022-10-16T17:33:51;1.10;;;1.10;;
17650;SDS011;26663;59.302;18.082;2022-10-16T17:36:55;0.80;;;0.80;;
17650;SDS011;26663;59.302;18.082;2022-10-16T17:40:00;0.95;;;0.80;;
17650;SDS011;26663;59.302;18.082;2022-10-16T17:43:10;0.90;;;0.90;;
17650;SDS011;26663;59.302;18.082;2022-10-16T17:46:15;0.98;;;0.90;;
17650;SDS011;26663;59.302;18.082;2022-10-16T17:49:22;1.00;;;1.00;;
17650;SDS011;26663;59.302;18.082;2022-10-16T17:52:32;1.52;;;0.80;;
17650;SDS011;26663;59.302;18.082;2022-10-16T17:55:37;2.10;;;1.00;;
17650;SDS011;26663;59.302;18.082;2022-10-16T17:58:46;2.25;;;0.80;;
17650;SDS011;26663;59.302;18.082;2022-10-16T18:01:53;0.70;;;0.70;;
17650;SDS011;26663;59.302;18.082;2022-10-16T18:04:59;3.72;;;0.88;;
17650;SDS011;26663;59.302;18.082;2022-10-16T18:08:03;1.17;;;0.93;;
17650;SDS011;26663;59.302;18.082;2022-10-16T18:11:10;1.50;;;1.20;;
17650;SDS011;26663;59.302;18.082;2022-10-16T18:14:17;0.98;;;0.90;;
17650;SDS011;26663;59.302;18.082;2022-10-16T18:17:22;2.38;;;1.10;;
17650;SDS011;26663;59.302;18.082;2022-10-16T18:20:27;1.90;;;1.30;;
17650;SDS011;26663;59.302;18.082;2022-10-16T18:23:33;4.78;;;1.27;;
17650;SDS011;26663;59.302;18.082;2022-10-16T18:26:38;1.00;;;1.00;;
17650;SDS011;26663;59.302;18.082;2022-10-16T18:29:45;1.20;;;1.20;;
17650;SDS011;26663;59.302;18.082;2022-10-16T18:32:50;1.50;;;1.25;;
17650;SDS011;26663;59.302;18.082;2022-10-16T18:35:55;1.08;;;1.08;;
17650;SDS011;26663;59.302;18.082;2022-10-16T18:39:04;1.73;;;1.20;;
17650;SDS011;26663;59.302;18.082;2022-10-16T18:42:11;3.05;;;1.20;;